Time,TemperatureF,DewpointF,PressureIn,WindDirection,WindDirectionDegrees,WindSpeedMPH,WindSpeedGustMPH,Humidity,HourlyPrecipIn,Conditions,Clouds,dailyrainin,SoftwareType,DateUTC
2013-10-26 00:14:00,42.3,-51.7,30.21,North,0,3.7,-999.0,1,-99.99,,,0.00,Acu-Link.com,2013-10-26 04:14:00,
2013-10-26 00:29:00,42.1,-51.8,30.21,North,0,3.7,-999.0,1,-99.99,,,0.00,Acu-Link.com,2013-10-26 04:29:00,
2013-10-26 00:44:00,41.7,-52.1,30.21,North,0,1.7,-999.0,1,-99.99,,,0.00,Acu-Link.com,2013-10-26 04:44:00,
2013-10-26 01:00:00,41.4,-52.2,30.21,North,0,3.7,-999.0,1,-99.99,,,0.00,Acu-Link.com,2013-10-26 05:00:00,
2013-10-26 01:15:00,41.0,-52.5,30.21,North,0,3.2,-999.0,1,-99.99,,,0.00,Acu-Link.com,2013-10-26 05:15:00,
2013-10-26 01:30:00,40.6,-52.7,30.21,North,0,1.7,-999.0,1,-99.99,,,0.00,Acu-Link.com,2013-10-26 05:30:00,
2013-10-26 01:45:00,40.3,-52.9,30.20,North,0,0.0,-999.0,1,-99.99,,,0.00,Acu-Link.com,2013-10-26 05:45:00,
2013-10-26 02:00:00,40.1,-53.0,30.21,North,0,0.0,-999.0,1,-99.99,,,0.00,Acu-Link.com,2013-10-26 06:00:00,
2013-10-26 02:15:00,39.6,-53.3,30.20,North,0,0.0,-999.0,1,-99.99,,,0.00,Acu-Link.com,2013-10-26 06:15:00,
2013-10-26 02:31:00,39.4,-53.5,30.20,North,0,0.0,-999.0,1,-99.99,,,0.00,Acu-Link.com,2013-10-26 06:31:00,
2013-10-26 02:46:00,39.6,-53.3,30.20,North,0,1.7,-999.0,1,-99.99,,,0.00,Acu-Link.com,2013-10-26 06:46:00,
2013-10-26 03:03:00,39.9,-53.2,30.20,North,0,2.7,-999.0,1,-99.99,,,0.00,Acu-Link.com,2013-10-26 07:03:00,
2013-10-26 03:18:00,40.1,-53.0,30.21,North,0,2.2,-999.0,1,-99.99,,,0.00,Acu-Link.com,2013-10-26 07:18:00,
2013-10-26 03:34:00,40.3,-52.9,30.20,North,0,2.7,-999.0,1,-99.99,,,0.00,Acu-Link.com,2013-10-26 07:34:00,
2013-10-26 03:49:00,40.3,-52.9,30.20,NNW,337,2.2,-999.0,1,-99.99,,,0.00,Acu-Link.com,2013-10-26 07:49:00,
2013-10-26 04:04:00,39.7,-53.3,30.20,NW,315,2.7,-999.0,1,-99.99,,,0.00,Acu-Link.com,2013-10-26 08:04:00,
2013-10-26 04:19:00,39.7,-53.3,30.20,NW,315,1.1,-999.0,1,-99.99,,,0.00,Acu-Link.com,2013-10-26 08:19:00,
2013-10-26 04:34:00,39.6,-53.3,30.19,West,270,2.2,-999.0,1,-99.99,,,0.00,Acu-Link.com,2013-10-26 08:34:00,
2013-10-26 04:50:00,40.5,-52.8,30.19,West,270,2.7,-999.0,1,-99.99,,,0.00,Acu-Link.com,2013-10-26 08:50:00,
2013-10-26 05:05:00,38.8,-53.8,30.19,West,270,2.2,-999.0,1,-99.99,,,0.00,Acu-Link.com,2013-10-26 09:05:00,
2013-10-26 05:20:00,39.0,-53.7,30.19,West,270,3.2,-999.0,1,-99.99,,,0.00,Acu-Link.com,2013-10-26 09:20:00,
2013-10-26 05:35:00,38.7,36.9,30.19,West,270,1.7,-999.0,93,-99.99,,,0.00,Acu-Link.com,2013-10-26 09:35:00,
2013-10-26 05:50:00,38.3,37.8,30.19,West,270,0.0,-999.0,98,-99.99,,,0.00,Acu-Link.com,2013-10-26 09:50:00,
2013-10-26 06:05:00,37.8,37.3,30.20,West,270,0.0,-999.0,98,-99.99,,,0.00,Acu-Link.com,2013-10-26 10:05:00,
2013-10-26 06:20:00,37.2,36.7,30.20,West,270,0.0,-999.0,98,-99.99,,,0.00,Acu-Link.com,2013-10-26 10:20:00,
2013-10-26 06:36:00,37.8,-54.5,30.20,West,270,0.0,-999.0,1,-99.99,,,0.00,Acu-Link.com,2013-10-26 10:36:00,
2013-10-26 06:51:00,36.3,-55.4,30.20,West,270,1.7,-999.0,1,-99.99,,,0.00,Acu-Link.com,2013-10-26 10:51:00,
2013-10-26 07:06:00,36.0,-55.6,30.19,West,270,2.2,-999.0,1,-99.99,,,0.00,Acu-Link.com,2013-10-26 11:06:00,
2013-10-26 07:21:00,36.1,-55.5,30.19,West,270,2.2,-999.0,1,-99.99,,,0.00,Acu-Link.com,2013-10-26 11:21:00,
2013-10-26 07:36:00,36.0,-55.6,30.19,West,270,1.7,-999.0,1,-99.99,,,0.00,Acu-Link.com,2013-10-26 11:36:00,
2013-10-26 07:51:00,36.7,-55.1,30.19,West,270,0.0,-999.0,1,-99.99,,,0.00,Acu-Link.com,2013-10-26 11:51:00,
2013-10-26 08:06:00,38.5,-54.0,30.19,West,270,1.7,-999.0,1,-99.99,,,0.00,Acu-Link.com,2013-10-26 12:06:00,
2013-10-26 08:22:00,38.5,-54.0,30.20,West,270,1.7,-999.0,1,-99.99,,,0.00,Acu-Link.com,2013-10-26 12:22:00,
2013-10-26 08:37:00,39.7,-53.3,30.20,SSW,202,3.2,-999.0,1,-99.99,,,0.00,Acu-Link.com,2013-10-26 12:37:00,
2013-10-26 08:52:00,41.5,17.2,30.19,SSW,202,2.2,-999.0,37,-99.99,,,0.00,Acu-Link.com,2013-10-26 12:52:00,
2013-10-26 09:07:00,42.4,-0.6,30.20,SW,225,3.7,-999.0,16,-99.99,,,0.00,Acu-Link.com,2013-10-26 13:07:00,
2013-10-26 09:22:00,44.2,-50.5,30.19,SSW,202,3.2,-999.0,1,-99.99,,,0.00,Acu-Link.com,2013-10-26 13:22:00,
2013-10-26 09:37:00,45.5,-49.7,30.20,SSW,202,3.2,-999.0,1,-99.99,,,0.00,Acu-Link.com,2013-10-26 13:37:00,
2013-10-26 09:53:00,46.8,-48.9,30.19,SSW,202,4.7,-999.0,1,-99.99,,,0.00,Acu-Link.com,2013-10-26 13:53:00,
2013-10-26 10:08:00,48.7,-47.7,30.18,SSW,202,4.2,-999.0,1,-99.99,,,0.00,Acu-Link.com,2013-10-26 14:08:00,
2013-10-26 10:23:00,49.6,-47.2,30.18,SSW,202,4.2,-999.0,1,-99.99,,,0.00,Acu-Link.com,2013-10-26 14:23:00,
2013-10-26 10:38:00,50.5,-46.6,30.17,SSW,202,6.3,-999.0,1,-99.99,,,0.00,Acu-Link.com,2013-10-26 14:38:00,
2013-10-26 10:53:00,51.6,-46.0,30.16,SSW,202,4.2,-999.0,1,-99.99,,,0.00,Acu-Link.com,2013-10-26 14:53:00,
2013-10-26 11:08:00,54.5,-44.2,30.15,SSW,202,5.3,-999.0,1,-99.99,,,0.00,Acu-Link.com,2013-10-26 15:08:00,
2013-10-26 11:24:00,54.3,-44.3,30.14,SSW,202,7.8,-999.0,1,-99.99,,,0.00,Acu-Link.com,2013-10-26 15:24:00,
2013-10-26 11:39:00,55.4,-43.7,30.14,West,270,10.4,-999.0,1,-99.99,,,0.00,Acu-Link.com,2013-10-26 15:39:00,
2013-10-26 11:54:00,55.2,-43.8,30.13,South,180,7.8,-999.0,1,-99.99,,,0.00,Acu-Link.com,2013-10-26 15:54:00,
2013-10-26 12:10:00,54.7,-44.1,30.12,West,270,6.8,-999.0,1,-99.99,,,0.00,Acu-Link.com,2013-10-26 16:10:00,
2013-10-26 12:25:00,56.3,-43.1,30.12,West,270,3.7,-999.0,1,-99.99,,,0.00,Acu-Link.com,2013-10-26 16:25:00,
2013-10-26 12:40:00,57.6,-42.3,30.10,SSW,202,9.4,-999.0,1,-99.99,,,0.00,Acu-Link.com,2013-10-26 16:40:00,
2013-10-26 12:55:00,56.1,-43.2,30.09,West,270,10.9,-999.0,1,-99.99,,,0.00,Acu-Link.com,2013-10-26 16:55:00,
2013-10-26 13:10:00,57.6,-42.3,30.07,SSW,202,3.7,-999.0,1,-99.99,,,0.00,Acu-Link.com,2013-10-26 17:10:00,
2013-10-26 13:25:00,58.8,-41.6,30.06,SSW,202,6.3,-999.0,1,-99.99,,,0.00,Acu-Link.com,2013-10-26 17:25:00,
2013-10-26 13:40:00,58.6,-41.7,30.05,South,180,11.4,-999.0,1,-99.99,,,0.00,Acu-Link.com,2013-10-26 17:40:00,
2013-10-26 13:55:00,59.5,-41.2,30.04,SSW,202,15.5,-999.0,1,-99.99,,,0.00,Acu-Link.com,2013-10-26 17:55:00,
2013-10-26 14:11:00,59.0,56.7,30.03,WSW,247,9.9,-999.0,92,-99.99,,,0.00,Acu-Link.com,2013-10-26 18:11:00,
2013-10-26 14:26:00,59.4,23.6,30.02,SSW,202,5.3,-999.0,25,-99.99,,,0.00,Acu-Link.com,2013-10-26 18:26:00,
2013-10-26 14:41:00,59.7,51.0,30.01,WSW,247,6.3,-999.0,73,-99.99,,,0.00,Acu-Link.com,2013-10-26 18:41:00,
2013-10-26 14:57:00,59.7,59.1,30.00,South,180,9.9,-999.0,98,-99.99,,,0.00,Acu-Link.com,2013-10-26 18:57:00,
2013-10-26 15:12:00,59.9,59.3,29.99,SW,225,10.9,-999.0,98,-99.99,,,0.00,Acu-Link.com,2013-10-26 19:12:00,
2013-10-26 15:27:00,59.7,59.1,29.99,ESE,112,10.9,-999.0,98,-99.99,,,0.00,Acu-Link.com,2013-10-26 19:27:00,
2013-10-26 15:42:00,59.2,58.6,29.99,West,270,12.5,-999.0,98,-99.99,,,0.00,Acu-Link.com,2013-10-26 19:42:00,
2013-10-26 15:57:00,59.5,58.9,29.98,SW,225,8.3,-999.0,98,-99.99,,,0.00,Acu-Link.com,2013-10-26 19:57:00,
2013-10-26 16:12:00,59.0,57.3,29.98,SW,225,10.9,-999.0,94,-99.99,,,0.00,Acu-Link.com,2013-10-26 20:12:00,
2013-10-26 16:28:00,57.9,57.3,29.97,WSW,247,7.3,-999.0,98,-99.99,,,0.00,Acu-Link.com,2013-10-26 20:28:00,
2013-10-26 16:43:00,57.7,38.7,29.96,WSW,247,9.4,-999.0,49,-99.99,,,0.00,Acu-Link.com,2013-10-26 20:43:00,
2013-10-26 16:58:00,57.4,56.8,29.96,SW,225,7.3,-999.0,98,-99.99,,,0.00,Acu-Link.com,2013-10-26 20:58:00,
2013-10-26 17:13:00,57.0,55.6,29.96,SSW,202,8.9,-999.0,95,-99.99,,,0.00,Acu-Link.com,2013-10-26 21:13:00,
2013-10-26 17:28:00,57.0,-42.7,29.95,SSW,202,6.8,-999.0,1,-99.99,,,0.00,Acu-Link.com,2013-10-26 21:28:00,
2013-10-26 17:43:00,55.8,-43.4,29.94,SSW,202,4.2,-999.0,1,-99.99,,,0.00,Acu-Link.com,2013-10-26 21:43:00,
2013-10-26 17:58:00,54.9,-44.0,29.94,South,180,8.9,-999.0,1,-99.99,,,0.00,Acu-Link.com,2013-10-26 21:58:00,
2013-10-26 18:14:00,54.1,-44.4,29.93,South,180,4.7,-999.0,1,-99.99,,,0.00,Acu-Link.com,2013-10-26 22:14:00,
2013-10-26 18:29:00,54.0,-44.5,29.93,WSW,247,8.3,-999.0,1,-99.99,,,0.00,Acu-Link.com,2013-10-26 22:29:00,
2013-10-26 18:44:00,53.1,-45.1,29.93,South,180,6.8,-999.0,1,-99.99,,,0.00,Acu-Link.com,2013-10-26 22:44:00,
2013-10-26 18:59:00,52.0,-45.7,29.93,South,180,5.3,-999.0,1,-99.99,,,0.00,Acu-Link.com,2013-10-26 22:59:00,
2013-10-26 19:14:00,51.6,-46.0,29.93,SSW,202,4.7,-999.0,1,-99.99,,,0.00,Acu-Link.com,2013-10-26 23:14:00,
2013-10-26 19:29:00,51.3,-46.2,29.92,SSW,202,3.2,-999.0,1,-99.99,,,0.00,Acu-Link.com,2013-10-26 23:29:00,
2013-10-26 19:44:00,50.9,-46.4,29.92,SSW,202,3.7,-999.0,1,-99.99,,,0.00,Acu-Link.com,2013-10-26 23:44:00,
2013-10-26 20:00:00,50.9,-46.4,29.92,SW,225,6.8,-999.0,1,-99.99,,,0.00,Acu-Link.com,2013-10-27 00:00:00,
2013-10-26 20:15:00,51.1,-46.3,29.92,SSW,202,8.3,-999.0,1,-99.99,,,0.00,Acu-Link.com,2013-10-27 00:15:00,
2013-10-26 20:30:00,50.9,-46.4,29.91,South,180,4.2,-999.0,1,-99.99,,,0.00,Acu-Link.com,2013-10-27 00:30:00,
2013-10-26 20:45:00,51.1,-46.3,29.91,SSW,202,3.2,-999.0,1,-99.99,,,0.00,Acu-Link.com,2013-10-27 00:45:00,
2013-10-26 21:00:00,50.7,-46.5,29.91,South,180,6.3,-999.0,1,-99.99,,,0.00,Acu-Link.com,2013-10-27 01:00:00,
2013-10-26 21:15:00,50.2,-46.8,29.91,SW,225,4.2,-999.0,1,-99.99,,,0.00,Acu-Link.com,2013-10-27 01:15:00,
2013-10-26 21:30:00,49.6,-47.2,29.91,SSW,202,3.7,-999.0,1,-99.99,,,0.00,Acu-Link.com,2013-10-27 01:30:00,
2013-10-26 21:45:00,49.3,-47.4,29.91,SSW,202,4.2,-999.0,1,-99.99,,,0.00,Acu-Link.com,2013-10-27 01:45:00,
2013-10-26 22:01:00,49.3,-47.4,29.91,SSW,202,6.3,-999.0,1,-99.99,,,0.00,Acu-Link.com,2013-10-27 02:01:00,
2013-10-26 22:16:00,48.7,-47.7,29.90,SSW,202,6.8,-999.0,1,-99.99,,,0.00,Acu-Link.com,2013-10-27 02:16:00,
2013-10-26 22:31:00,48.9,-47.6,29.91,South,180,5.3,-999.0,1,-99.99,,,0.00,Acu-Link.com,2013-10-27 02:31:00,
2013-10-26 22:46:00,48.4,-47.9,29.90,SSW,202,5.8,-999.0,1,-99.99,,,0.00,Acu-Link.com,2013-10-27 02:46:00,
2013-10-26 23:01:00,48.7,-47.7,29.89,SSW,202,4.2,-999.0,1,-99.99,,,0.00,Acu-Link.com,2013-10-27 03:01:00,
2013-10-26 23:16:00,49.1,-47.5,29.89,SSW,202,6.8,-999.0,1,-99.99,,,0.00,Acu-Link.com,2013-10-27 03:16:00,
2013-10-26 23:32:00,49.3,-47.4,29.88,SW,225,5.3,-999.0,1,-99.99,,,0.00,Acu-Link.com,2013-10-27 03:32:00,
2013-10-26 23:47:00,49.8,-47.1,29.87,SW,225,6.8,-999.0,1,-99.99,,,0.00,Acu-Link.com,2013-10-27 03:47:00,